createdAt,value
2023-07-26T00:00:44.376Z,15.15
2023-07-26T00:04:46.438Z,15.14
2023-07-26T00:08:48.332Z,15.12
2023-07-26T00:12:50.198Z,15.10
2023-07-26T00:16:52.129Z,15.09
2023-07-26T00:20:54.036Z,15.07
2023-07-26T00:24:56.110Z,15.04
2023-07-26T00:28:58.083Z,15.02
2023-07-26T00:33:00.029Z,14.99
2023-07-26T00:37:05.287Z,14.96
2023-07-26T00:41:08.753Z,14.90
2023-07-26T00:45:11.053Z,14.78
2023-07-26T00:49:13.073Z,14.69
2023-07-26T00:53:15.593Z,14.61
2023-07-26T00:57:17.757Z,14.57
2023-07-26T01:01:19.795Z,14.51
2023-07-26T01:05:24.275Z,14.40
2023-07-26T01:09:40.463Z,14.32
2023-07-26T01:13:53.182Z,14.28
2023-07-26T01:18:12.615Z,14.23
2023-07-26T01:22:15.419Z,14.16
2023-07-26T01:26:17.353Z,14.08
2023-07-26T01:30:19.936Z,14.02
2023-07-26T01:34:22.083Z,13.95
2023-07-26T01:38:26.098Z,13.93
2023-07-26T01:42:28.378Z,13.91
2023-07-26T01:46:30.356Z,13.90
2023-07-26T01:50:33.754Z,13.82
2023-07-26T01:54:35.569Z,13.77
2023-07-26T01:58:37.476Z,13.73
2023-07-26T02:02:39.502Z,13.74
2023-07-26T02:06:41.419Z,13.69
2023-07-26T02:10:43.530Z,13.65
2023-07-26T02:14:45.412Z,13.63
2023-07-26T02:18:47.263Z,13.62
2023-07-26T02:22:49.269Z,13.62
2023-07-26T02:26:51.149Z,13.60
2023-07-26T02:30:53.072Z,13.58
2023-07-26T02:34:54.976Z,13.52
2023-07-26T02:38:56.900Z,13.49
2023-07-26T02:42:58.799Z,13.47
2023-07-26T02:47:00.674Z,13.44
2023-07-26T02:51:02.713Z,13.40
2023-07-26T02:55:05.293Z,13.34
2023-07-26T02:59:07.272Z,13.33
2023-07-26T03:03:09.295Z,13.37
2023-07-26T03:07:11.263Z,13.45
2023-07-26T03:11:13.842Z,13.54
2023-07-26T03:15:15.861Z,13.63
2023-07-26T03:19:17.727Z,13.69
2023-07-26T03:23:19.809Z,13.75
2023-07-26T03:27:24.363Z,13.80
2023-07-26T03:31:26.580Z,13.83
2023-07-26T03:35:30.581Z,13.86
2023-07-26T03:39:32.816Z,13.91
2023-07-26T03:43:34.725Z,13.94
2023-07-26T03:47:36.595Z,13.96
2023-07-26T03:51:38.566Z,13.97
2023-07-26T03:55:40.451Z,13.99
2023-07-26T03:59:42.266Z,14.01
2023-07-26T04:03:44.760Z,14.04
2023-07-26T04:07:46.723Z,14.04
2023-07-26T04:11:48.620Z,14.05
2023-07-26T04:15:50.505Z,14.09
2023-07-26T04:19:53.292Z,14.11
2023-07-26T04:23:55.173Z,14.15
2023-07-26T04:27:57.076Z,14.20
2023-07-26T04:31:58.991Z,14.26
2023-07-26T04:36:00.903Z,14.34
2023-07-26T04:40:02.921Z,14.39
2023-07-26T04:44:04.995Z,14.43
2023-07-26T04:48:06.924Z,14.43
2023-07-26T04:52:08.961Z,14.44
2023-07-26T04:56:11.383Z,14.44
2023-07-26T05:00:13.938Z,14.45
2023-07-26T05:04:15.856Z,14.48
2023-07-26T05:08:18.173Z,14.50
2023-07-26T05:12:20.048Z,14.51
2023-07-26T05:16:21.956Z,14.55
2023-07-26T05:20:24.100Z,14.55
2023-07-26T05:24:26.008Z,14.48
2023-07-26T05:28:27.924Z,14.32
2023-07-26T05:32:29.944Z,13.85
2023-07-26T05:36:31.833Z,13.44
2023-07-26T05:40:34.401Z,13.12
2023-07-26T05:44:36.429Z,12.95
2023-07-26T05:48:38.319Z,12.90
2023-07-26T05:52:42.430Z,12.87
2023-07-26T05:56:45.407Z,12.92
2023-07-26T06:00:47.328Z,12.88
2023-07-26T06:04:49.340Z,12.86
2023-07-26T06:08:52.381Z,12.98
2023-07-26T06:12:54.359Z,13.08
2023-07-26T06:16:56.566Z,13.25
2023-07-26T06:20:58.537Z,13.41
2023-07-26T06:25:00.567Z,13.67
2023-07-26T06:29:02.542Z,13.91
2023-07-26T06:33:04.569Z,14.08
2023-07-26T06:37:06.624Z,14.23
2023-07-26T06:41:08.689Z,14.46
2023-07-26T06:45:11.148Z,14.72
2023-07-26T06:49:13.141Z,14.85
2023-07-26T06:53:15.013Z,14.90
2023-07-26T06:57:16.967Z,15.04
2023-07-26T07:01:19.060Z,15.14
2023-07-26T07:05:21.348Z,15.23
2023-07-26T07:09:23.238Z,15.26
2023-07-26T07:13:25.077Z,15.33
2023-07-26T07:17:26.954Z,15.43
2023-07-26T07:21:29.131Z,15.58
2023-07-26T07:25:31.066Z,15.79
2023-07-26T07:29:36.126Z,16.00
2023-07-26T07:33:38.844Z,16.05
2023-07-26T07:37:40.706Z,16.07
2023-07-26T07:41:42.604Z,16.08
2023-07-26T07:45:44.650Z,16.15
2023-07-26T07:49:48.291Z,16.21
2023-07-26T07:53:50.364Z,16.21
2023-07-26T07:57:52.378Z,16.15
2023-07-26T08:01:54.365Z,16.15
2023-07-26T08:05:56.242Z,16.29
2023-07-26T08:09:58.231Z,16.51
2023-07-26T08:14:00.220Z,16.70
2023-07-26T08:18:06.304Z,16.77
2023-07-26T08:22:08.481Z,16.68
2023-07-26T08:26:10.842Z,16.55
2023-07-26T08:30:13.002Z,16.52
2023-07-26T08:34:14.997Z,16.61
2023-07-26T08:38:17.233Z,16.91
2023-07-26T08:42:19.094Z,17.03
2023-07-26T08:46:21.858Z,16.98
2023-07-26T08:50:24.329Z,16.98
2023-07-26T08:54:26.265Z,17.09
2023-07-26T08:58:28.337Z,17.10
2023-07-26T09:02:31.360Z,17.04
2023-07-26T09:06:41.471Z,17.04
2023-07-26T09:10:44.040Z,17.16
2023-07-26T09:14:45.988Z,17.24
2023-07-26T09:19:01.930Z,17.37
2023-07-26T09:23:06.938Z,17.40
2023-07-26T09:27:10.779Z,17.35
2023-07-26T09:31:12.820Z,17.30
2023-07-26T09:35:14.783Z,17.28
2023-07-26T09:39:18.715Z,17.33
2023-07-26T09:43:34.275Z,17.48
2023-07-26T09:47:40.519Z,17.61
2023-07-26T09:52:13.869Z,17.62
2023-07-26T09:56:05.780Z,17.69
2023-07-26T10:00:08.968Z,17.83
2023-07-26T10:04:17.373Z,17.90
2023-07-26T10:08:21.158Z,17.91
2023-07-26T10:12:27.487Z,18.02
2023-07-26T10:16:29.786Z,18.03
2023-07-26T10:20:32.707Z,18.06
2023-07-26T10:24:37.651Z,18.03
2023-07-26T10:28:40.302Z,18.00
2023-07-26T10:32:51.411Z,18.06
2023-07-26T10:36:54.209Z,18.10
2023-07-26T10:40:56.095Z,18.24
2023-07-26T10:45:03.615Z,18.20
2023-07-26T10:49:27.677Z,18.15
2023-07-26T10:53:30.767Z,18.18
2023-07-26T10:57:33.595Z,18.24
2023-07-26T11:01:45.404Z,18.15
2023-07-26T11:05:56.808Z,18.10
2023-07-26T11:10:17.594Z,18.20
2023-07-26T11:14:19.546Z,18.34
2023-07-26T11:18:22.120Z,18.42
2023-07-26T11:22:23.977Z,18.40
2023-07-26T11:26:26.390Z,18.37
2023-07-26T11:30:28.295Z,18.49
2023-07-26T11:34:30.776Z,18.55
2023-07-26T11:38:32.759Z,18.56
2023-07-26T11:42:34.837Z,18.59
2023-07-26T11:46:37.298Z,18.69
2023-07-26T11:50:41.048Z,18.78
2023-07-26T11:55:02.274Z,18.72
2023-07-26T11:59:04.920Z,18.72
2023-07-26T12:03:08.335Z,18.70
2023-07-26T12:07:13.557Z,18.69
2023-07-26T12:11:20.231Z,18.71
2023-07-26T12:15:22.369Z,18.86
2023-07-26T12:19:25.816Z,19.02
2023-07-26T12:23:30.256Z,19.08
2023-07-26T12:27:35.770Z,19.13
2023-07-26T12:31:40.911Z,19.20
2023-07-26T12:35:46.783Z,19.24
2023-07-26T12:39:50.750Z,19.25
2023-07-26T12:43:55.217Z,19.19
2023-07-26T12:47:57.169Z,19.13
2023-07-26T12:52:00.844Z,19.12
2023-07-26T12:56:02.896Z,19.19
2023-07-26T13:00:05.351Z,19.35
2023-07-26T13:04:08.507Z,19.38
2023-07-26T13:08:11.045Z,19.25
2023-07-26T13:12:13.042Z,19.22
2023-07-26T13:16:14.971Z,19.28
2023-07-26T13:20:17.481Z,19.30
2023-07-26T13:24:19.510Z,19.30
2023-07-26T13:28:21.542Z,19.31
2023-07-26T13:32:23.491Z,19.34
2023-07-26T13:36:25.408Z,19.35
2023-07-26T13:40:27.550Z,19.35
2023-07-26T13:44:29.490Z,19.36
2023-07-26T13:48:31.327Z,19.34
2023-07-26T13:52:33.239Z,19.35
2023-07-26T13:56:35.347Z,19.38
2023-07-26T14:00:37.498Z,19.36
2023-07-26T14:04:39.447Z,19.41
2023-07-26T14:08:41.553Z,19.42
2023-07-26T14:12:43.379Z,19.47
2023-07-26T14:16:45.762Z,19.50
2023-07-26T14:20:47.783Z,19.53
2023-07-26T14:24:49.714Z,19.46
2023-07-26T14:28:51.593Z,19.43
2023-07-26T14:32:53.425Z,19.33
2023-07-26T14:36:55.459Z,19.38
2023-07-26T14:40:57.434Z,19.46
2023-07-26T14:44:59.287Z,19.51
2023-07-26T14:49:01.163Z,19.58
2023-07-26T14:53:03.024Z,19.63
2023-07-26T14:57:11.433Z,19.63
2023-07-26T15:01:14.214Z,19.69
2023-07-26T15:05:19.175Z,19.74
2023-07-26T15:09:21.141Z,19.75
2023-07-26T15:13:23.054Z,19.75
2023-07-26T15:17:24.989Z,19.83
2023-07-26T15:21:26.917Z,19.88
2023-07-26T15:25:28.828Z,19.93
2023-07-26T15:29:30.763Z,19.99
2023-07-26T15:33:32.692Z,20.07
2023-07-26T15:37:34.619Z,20.10
2023-07-26T15:49:57.066Z,19.96
2023-07-26T15:53:59.323Z,19.94
2023-07-26T15:58:01.324Z,19.94
2023-07-26T16:02:03.288Z,19.95
2023-07-26T16:10:10.269Z,19.93
2023-07-26T16:18:17.095Z,19.92
2023-07-26T16:22:19.140Z,19.89
2023-07-26T16:26:20.957Z,19.89
2023-07-26T16:30:22.839Z,19.96
2023-07-26T16:34:24.905Z,20.05
2023-07-26T16:38:26.799Z,20.14
2023-07-26T16:42:28.834Z,20.23
2023-07-26T16:46:47.160Z,20.28
2023-07-26T16:50:52.595Z,20.26
2023-07-26T16:54:54.498Z,20.25
2023-07-26T16:58:56.356Z,20.27
2023-07-26T17:02:58.427Z,20.36
2023-07-26T17:07:00.412Z,20.41
2023-07-26T17:11:02.415Z,20.42
2023-07-26T17:15:04.680Z,20.38
2023-07-26T17:19:06.570Z,20.37
2023-07-26T17:23:08.488Z,20.35
2023-07-26T17:27:10.441Z,20.32
2023-07-26T17:31:12.394Z,20.33
2023-07-26T17:35:14.366Z,20.29
2023-07-26T17:39:16.290Z,20.23
2023-07-26T17:43:18.212Z,20.14
2023-07-26T17:47:21.714Z,20.00
2023-07-26T17:51:23.570Z,19.92
2023-07-26T17:55:25.797Z,19.82
2023-07-26T17:59:27.657Z,19.71
2023-07-26T18:03:29.839Z,19.60
2023-07-26T18:07:32.429Z,19.55
2023-07-26T18:11:34.324Z,19.49
2023-07-26T18:15:36.779Z,19.43
2023-07-26T18:19:38.756Z,19.34
2023-07-26T18:23:42.488Z,19.27
2023-07-26T18:27:44.836Z,19.22
2023-07-26T18:31:46.910Z,19.13
2023-07-26T18:35:48.865Z,19.09
2023-07-26T18:39:50.880Z,19.00
2023-07-26T18:43:52.815Z,18.98
2023-07-26T18:47:55.115Z,18.93
2023-07-26T18:51:57.081Z,18.86
2023-07-26T18:55:59.019Z,18.82
2023-07-26T19:00:01.660Z,18.75
2023-07-26T19:04:03.696Z,18.68
2023-07-26T19:08:09.135Z,18.63
2023-07-26T19:12:11.104Z,18.59
2023-07-26T19:16:13.345Z,18.54
2023-07-26T19:20:15.337Z,18.52
2023-07-26T19:24:17.202Z,18.50
2023-07-26T19:28:19.249Z,18.45
2023-07-26T19:32:21.382Z,18.37
2023-07-26T19:36:23.335Z,18.31
2023-07-26T19:40:25.239Z,18.26
2023-07-26T19:44:27.184Z,18.22
2023-07-26T19:48:29.088Z,18.17
2023-07-26T19:52:30.918Z,18.13
2023-07-26T19:56:32.743Z,18.09
2023-07-26T20:00:34.660Z,18.04
2023-07-26T20:04:37.082Z,18.03
2023-07-26T20:08:39.089Z,18.00
2023-07-26T20:12:40.985Z,17.95
2023-07-26T20:16:45.776Z,17.90
2023-07-26T20:20:50.558Z,17.86
2023-07-26T20:24:52.966Z,17.82
2023-07-26T20:28:54.808Z,17.82
2023-07-26T20:32:56.787Z,17.78
2023-07-26T20:36:59.066Z,17.74
2023-07-26T20:41:00.949Z,17.68
2023-07-26T20:45:03.098Z,17.67
2023-07-26T20:49:05.247Z,17.67
2023-07-26T20:53:07.170Z,17.66
2023-07-26T20:57:09.127Z,17.65
2023-07-26T21:01:11.059Z,17.64
2023-07-26T21:05:12.973Z,17.63
2023-07-26T21:09:14.893Z,17.62
2023-07-26T21:13:16.864Z,17.60
2023-07-26T21:17:18.976Z,17.59
2023-07-26T21:21:22.781Z,17.57
2023-07-26T21:25:24.613Z,17.55
2023-07-26T21:29:26.879Z,17.53
2023-07-26T21:33:29.686Z,17.53
2023-07-26T21:37:31.606Z,17.50
2023-07-26T21:41:33.710Z,17.49
2023-07-26T21:45:35.551Z,17.48
2023-07-26T21:49:37.392Z,17.47
2023-07-26T21:53:39.248Z,17.46
2023-07-26T21:57:41.266Z,17.45
2023-07-26T22:01:43.602Z,17.45
2023-07-26T22:05:49.063Z,17.44
2023-07-26T22:09:50.991Z,17.43
2023-07-26T22:13:53.779Z,17.43
2023-07-26T22:17:55.637Z,17.44
2023-07-26T22:21:57.555Z,17.44
2023-07-26T22:26:11.634Z,17.44
2023-07-26T22:30:16.915Z,17.46
2023-07-26T22:34:18.783Z,17.47
2023-07-26T22:38:21.028Z,17.46
2023-07-26T22:42:22.829Z,17.41
2023-07-26T22:46:24.992Z,17.41
2023-07-26T22:50:26.950Z,17.42
2023-07-26T22:54:28.826Z,17.42
2023-07-26T22:58:30.683Z,17.42
2023-07-26T23:02:32.628Z,17.41
2023-07-26T23:06:34.945Z,17.42
2023-07-26T23:10:36.991Z,17.41
2023-07-26T23:14:38.924Z,17.42
2023-07-26T23:18:40.888Z,17.41
2023-07-26T23:22:42.787Z,17.39
2023-07-26T23:26:44.605Z,17.38
2023-07-26T23:30:51.854Z,17.38
2023-07-26T23:34:53.678Z,17.36
2023-07-26T23:38:55.501Z,17.36
2023-07-26T23:42:57.351Z,17.36
2023-07-26T23:46:59.189Z,17.35
2023-07-26T23:51:01.211Z,17.34
2023-07-26T23:55:03.059Z,17.33
2023-07-26T23:59:05.010Z,17.32
